Time;durP1;ratioP1;P1;durP2;ratioP2;P2;SDS_P1;SDS_P2;PMS_P1;PMS_P2;Temp;Humidity;BMP_temperature;BMP_pressure;BME280_temperature;BME280_humidity;BME280_pressure;Samples;Min_cycle;Max_cycle;Signal;HPM_P1;HPM_P2
2023/06/08 00:02:15;;;;;;;;;;;;;;;24.48;43.38;101966.56;5070756;28;19947;-71
2023/06/08 00:04:41;;;;;;;;;;;;;;;24.49;43.34;101964.69;5058572;28;19921;-71
2023/06/08 00:07:10;;;;;;;;;;;;;;;24.47;43.53;101967.59;5048785;28;19913;-70
2023/06/08 00:09:36;;;;;;;;;;;;;;;24.46;43.35;101957.72;5065836;28;19960;-70
2023/06/08 00:12:01;;;;;;;;;;;;;;;24.46;43.69;101965.88;5056921;28;19921;-71
2023/06/08 00:14:27;;;;;;;;;;;;;;;24.45;43.51;101958.75;5072765;28;19932;-71
2023/06/08 00:16:52;;;;;;;;;;;;;;;24.44;43.13;101957.06;5060976;28;20007;-70
2023/06/08 00:19:17;;;;;;;;;;;;;;;24.44;43.33;101960.63;5062717;28;20027;-71
2023/06/08 00:21:43;;;;;;;;;;;;;;;24.44;43.39;101959.78;5064699;28;19920;-70
2023/06/08 00:24:11;;;;;;;;;;;;;;;24.43;43.21;101952.66;5065507;28;19927;-71
2023/06/08 00:26:36;;;;;;;;;;;;;;;24.42;43.30;101949.09;5039175;28;19916;-70
2023/06/08 00:29:02;;;;;;;;;;;;;;;24.42;43.35;101956.38;5051972;28;20399;-70
2023/06/08 00:31:27;;;;;;;;;;;;;;;24.41;43.24;101952.81;5043364;28;19917;-71
2023/06/08 00:33:52;;;;;;;;;;;;;;;24.41;43.33;101944.66;5062272;28;19917;-70
2023/06/08 00:36:19;;;;;;;;;;;;;;;24.41;43.04;101960.97;5069347;28;19947;-70
2023/06/08 00:38:44;;;;;;;;;;;;;;;24.40;43.21;101964.72;5053625;28;19951;-70
2023/06/08 00:41:09;;;;;;;;;;;;;;;24.40;43.25;101959.31;5067534;28;19917;-71
2023/06/08 00:43:35;;;;;;;;;;;;;;;24.39;43.08;101952.19;5061615;28;19912;-71
2023/06/08 00:46:02;;;;;;;;;;;;;;;24.39;43.00;101951.34;5062563;28;20026;-70
2023/06/08 00:48:27;;;;;;;;;;;;;;;24.39;43.06;101956.78;5069696;28;19913;-70
2023/06/08 00:50:52;;;;;;;;;;;;;;;24.38;43.26;101955.94;5048103;28;19986;-69
2023/06/08 00:53:18;;;;;;;;;;;;;;;24.37;43.13;101953.34;5041764;28;19916;-71
2023/06/08 00:55:44;;;;;;;;;;;;;;;24.37;42.96;101953.34;5066000;28;20463;-71
2023/06/08 00:58:13;;;;;;;;;;;;;;;24.35;43.01;101949.97;5063756;28;19913;-71
2023/06/08 01:00:38;;;;;;;;;;;;;;;24.35;42.88;101953.53;5040508;28;19984;-71
2023/06/08 01:03:04;;;;;;;;;;;;;;;24.35;43.04;101945.38;5070814;28;19912;-70
2023/06/08 01:05:32;;;;;;;;;;;;;;;24.34;43.09;101945.53;5059048;28;20301;-70
2023/06/08 01:08:04;;;;;;;;;;;;;;;24.34;43.04;101943.69;5067863;28;19923;-71
2023/06/08 01:10:47;;;;;;;;;;;;;;;24.34;43.08;101942.81;5059948;28;20021;-71
2023/06/08 01:13:14;;;;;;;;;;;;;;;24.32;42.92;101937.56;5056763;28;19915;-71
2023/06/08 01:15:41;;;;;;;;;;;;;;;24.31;43.11;101937.75;5067436;28;20273;-71
2023/06/08 01:18:07;;;;;;;;;;;;;;;24.29;42.88;101935.19;5046551;28;19960;-70
2023/06/08 01:20:34;;;;;;;;;;;;;;;24.28;43.10;101932.69;5062094;28;19917;-70
2023/06/08 01:23:20;;;;;;;;;;;;;;;24.26;42.87;101934.75;5066897;28;20034;-70
2023/06/08 01:25:46;;;;;;;;;;;;;;;24.24;43.06;101928.63;5065761;28;19939;-70
2023/06/08 01:28:15;;;;;;;;;;;;;;;24.23;42.94;101925.06;5045658;28;19921;-70
2023/06/08 01:30:41;;;;;;;;;;;;;;;24.21;42.80;101927.09;5073702;28;19936;-71
2023/06/08 01:33:06;;;;;;;;;;;;;;;24.22;42.85;101936.13;5039166;28;19913;-70
2023/06/08 01:35:32;;;;;;;;;;;;;;;24.20;42.88;101928.97;5054790;28;19923;-70
2023/06/08 01:37:58;;;;;;;;;;;;;;;24.20;42.83;101939.00;5065357;28;20016;-70
2023/06/08 01:40:28;;;;;;;;;;;;;;;24.19;42.91;101934.59;5062290;28;19917;-71
2023/06/08 01:42:53;;;;;;;;;;;;;;;24.17;42.95;101937.50;5070857;28;19913;-71
2023/06/08 01:45:24;;;;;;;;;;;;;;;24.17;42.74;101937.50;5064388;28;19917;-71
2023/06/08 01:47:54;;;;;;;;;;;;;;;24.16;42.62;101938.50;5052148;28;19912;-70
2023/06/08 01:50:19;;;;;;;;;;;;;;;24.16;42.77;101934.94;5049025;28;19913;-70
2023/06/08 01:52:45;;;;;;;;;;;;;;;24.16;42.76;101937.66;5048401;28;19920;-70
2023/06/08 01:55:17;;;;;;;;;;;;;;;24.15;42.84;101938.69;5044974;28;19921;-71
2023/06/08 01:57:42;;;;;;;;;;;;;;;24.14;42.93;101939.72;5074650;28;19920;-70
2023/06/08 02:00:08;;;;;;;;;;;;;;;24.13;42.91;101932.63;5058607;28;19923;-70
2023/06/08 02:02:34;;;;;;;;;;;;;;;24.14;42.83;101935.13;5072937;28;19920;-70
2023/06/08 02:04:59;;;;;;;;;;;;;;;24.13;42.65;101944.31;5065397;28;19913;-71
2023/06/08 02:07:24;;;;;;;;;;;;;;;24.12;42.82;101939.03;5040727;28;19913;-71
2023/06/08 02:09:49;;;;;;;;;;;;;;;24.13;42.60;101940.75;5073740;28;19913;-71
2023/06/08 02:12:14;;;;;;;;;;;;;;;24.12;42.49;101936.34;5061930;28;19968;-71
2023/06/08 02:14:40;;;;;;;;;;;;;;;24.12;42.65;101939.88;5065838;28;19921;-70
2023/06/08 02:17:05;;;;;;;;;;;;;;;24.11;42.61;101926.50;5052920;28;19955;-70
2023/06/08 02:19:31;;;;;;;;;;;;;;;24.11;42.55;101927.34;5072238;28;19917;-70
2023/06/08 02:21:57;;;;;;;;;;;;;;;24.10;42.63;101930.25;5061400;28;19923;-70
2023/06/08 02:24:22;;;;;;;;;;;;;;;24.09;42.38;101923.97;5072141;28;20007;-70
2023/06/08 02:26:48;;;;;;;;;;;;;;;24.09;42.75;101925.84;5061940;28;19917;-71
2023/06/08 02:29:13;;;;;;;;;;;;;;;24.08;42.54;101927.69;5066237;28;19954;-71
2023/06/08 02:31:38;;;;;;;;;;;;;;;24.09;42.31;101929.41;5069081;28;20018;-71
2023/06/08 02:34:04;;;;;;;;;;;;;;;24.08;42.65;101932.28;5057478;28;19924;-70
2023/06/08 02:36:31;;;;;;;;;;;;;;;24.08;42.42;101933.13;5072973;28;19913;-70
2023/06/08 02:38:57;;;;;;;;;;;;;;;24.07;42.57;101926.00;5061308;28;19913;-70
2023/06/08 02:41:22;;;;;;;;;;;;;;;24.07;42.48;101925.16;5064277;28;20334;-70
2023/06/08 02:43:47;;;;;;;;;;;;;;;24.05;42.46;101925.34;5053989;28;19979;-70
2023/06/08 02:46:12;;;;;;;;;;;;;;;24.05;42.38;101922.63;5068743;28;19935;-70
2023/06/08 02:48:37;;;;;;;;;;;;;;;24.05;42.61;101927.22;5061345;28;20301;-70
2023/06/08 02:51:03;;;;;;;;;;;;;;;24.05;42.52;101930.78;5070377;28;19946;-71
2023/06/08 02:53:28;;;;;;;;;;;;;;;24.04;42.40;101922.78;5065332;28;19944;-70
2023/06/08 02:55:54;;;;;;;;;;;;;;;24.03;42.35;101921.94;5059286;28;20530;-70
2023/06/08 02:58:19;;;;;;;;;;;;;;;24.03;42.37;101915.66;5073434;28;19913;-70
2023/06/08 03:00:44;;;;;;;;;;;;;;;24.03;42.34;101915.66;5055984;28;19948;-70
2023/06/08 03:03:10;;;;;;;;;;;;;;;24.01;42.17;101921.28;5071837;28;20336;-70
2023/06/08 03:05:39;;;;;;;;;;;;;;;24.01;42.36;101920.44;5064368;28;19971;-70
2023/06/08 03:08:04;;;;;;;;;;;;;;;24.00;42.36;101930.47;5062514;28;19920;-70
2023/06/08 03:10:29;;;;;;;;;;;;;;;24.00;42.30;101927.75;5050759;28;19917;-70
2023/06/08 03:12:54;;;;;;;;;;;;;;;23.99;42.40;101927.91;5064739;28;19930;-70
2023/06/08 03:15:22;;;;;;;;;;;;;;;23.98;42.40;101921.63;5059948;28;20293;-70
2023/06/08 03:17:47;;;;;;;;;;;;;;;23.98;42.41;101916.22;5066761;28;19940;-70
2023/06/08 03:20:13;;;;;;;;;;;;;;;23.97;42.37;101909.09;5067348;28;20401;-70
2023/06/08 03:22:41;;;;;;;;;;;;;;;23.98;42.36;101912.66;5056600;28;19924;-70
2023/06/08 03:25:07;;;;;;;;;;;;;;;23.95;42.11;101911.97;5073418;28;19995;-70
2023/06/08 03:27:32;;;;;;;;;;;;;;;23.96;42.19;101918.28;5051488;28;20333;-70
2023/06/08 03:29:58;;;;;;;;;;;;;;;23.94;42.24;101923.88;5064000;28;19916;-70
2023/06/08 03:32:23;;;;;;;;;;;;;;;23.93;42.13;101924.88;5067325;28;19916;-71
2023/06/08 03:34:48;;;;;;;;;;;;;;;23.93;42.34;101924.06;5059390;28;19973;-71
2023/06/08 03:37:13;;;;;;;;;;;;;;;23.92;42.12;101912.34;5070394;28;20496;-71
2023/06/08 03:39:39;;;;;;;;;;;;;;;23.92;42.13;101916.94;5061823;28;19919;-71
2023/06/08 03:42:05;;;;;;;;;;;;;;;23.90;42.16;101922.53;5062783;28;19913;-71
2023/06/08 03:44:30;;;;;;;;;;;;;;;23.90;42.16;101914.38;5046422;28;19935;-70
2023/06/08 03:46:55;;;;;;;;;;;;;;;23.90;42.23;101908.94;5067575;28;20285;-70
2023/06/08 03:49:21;;;;;;;;;;;;;;;23.89;42.11;101907.25;5060908;28;19924;-70
2023/06/08 03:51:46;;;;;;;;;;;;;;;23.89;42.07;101900.97;5070770;28;20432;-70
2023/06/08 03:54:11;;;;;;;;;;;;;;;23.88;42.22;101893.88;5062843;28;19947;-71
2023/06/08 03:56:36;;;;;;;;;;;;;;;23.87;42.18;101893.03;5060386;28;19921;-70
2023/06/08 03:59:02;;;;;;;;;;;;;;;23.87;42.22;101894.88;5071848;28;20358;-71
2023/06/08 04:01:28;;;;;;;;;;;;;;;23.85;41.98;101895.06;5055775;28;19917;-71
2023/06/08 04:03:53;;;;;;;;;;;;;;;23.87;42.05;101892.16;5067722;28;19987;-70
2023/06/08 04:06:18;;;;;;;;;;;;;;;23.85;42.10;101886.91;5049826;28;19917;-70
2023/06/08 04:08:44;;;;;;;;;;;;;;;23.85;41.91;101900.50;5062895;28;19913;-70
2023/06/08 04:11:10;;;;;;;;;;;;;;;23.85;41.91;101895.06;5066524;28;19916;-70
2023/06/08 04:13:36;;;;;;;;;;;;;;;23.83;42.00;101886.25;5048196;28;19952;-70
2023/06/08 04:16:03;;;;;;;;;;;;;;;23.84;42.10;101882.50;5058095;28;19921;-70
2023/06/08 04:18:29;;;;;;;;;;;;;;;23.83;41.90;101888.09;5067648;28;19985;-69
2023/06/08 04:20:54;;;;;;;;;;;;;;;23.83;42.17;101888.97;5063928;28;19921;-69
2023/06/08 04:23:19;;;;;;;;;;;;;;;23.82;42.05;101892.69;5051465;28;19913;-70
2023/06/08 04:25:46;;;;;;;;;;;;;;;23.82;42.08;101886.41;5073784;28;19912;-71
2023/06/08 04:28:12;;;;;;;;;;;;;;;23.81;42.17;101888.28;5058701;28;19924;-70
2023/06/08 04:30:37;;;;;;;;;;;;;;;23.81;42.15;101887.44;5066012;28;19913;-70
2023/06/08 04:33:03;;;;;;;;;;;;;;;23.80;42.09;101889.31;5047912;28;19934;-70
2023/06/08 04:35:28;;;;;;;;;;;;;;;23.80;42.22;101892.03;5042360;28;19925;-70
2023/06/08 04:37:53;;;;;;;;;;;;;;;23.80;41.96;101885.75;5064104;28;19923;-70
2023/06/08 04:40:19;;;;;;;;;;;;;;;23.79;42.09;101893.06;5062922;28;19917;-71
2023/06/08 04:42:45;;;;;;;;;;;;;;;23.79;41.98;101894.91;5060210;28;19913;-70
2023/06/08 04:45:11;;;;;;;;;;;;;;;23.77;41.84;101889.66;5062201;28;19916;-70
2023/06/08 04:47:36;;;;;;;;;;;;;;;23.78;42.08;101890.50;5068083;28;20303;-70
2023/06/08 04:50:02;;;;;;;;;;;;;;;23.76;42.10;101887.97;5059125;28;20366;-70
2023/06/08 04:52:27;;;;;;;;;;;;;;;23.77;42.05;101886.94;5073022;28;19916;-70
2023/06/08 04:54:52;;;;;;;;;;;;;;;23.76;42.09;101881.69;5060564;28;19924;-69
2023/06/08 04:57:19;;;;;;;;;;;;;;;23.75;42.09;101883.56;5063136;28;19924;-69
2023/06/08 04:59:44;;;;;;;;;;;;;;;23.75;41.93;101889.00;5073165;28;19917;-70
2023/06/08 05:02:09;;;;;;;;;;;;;;;23.74;41.98;101881.84;5061965;28;19924;-71
2023/06/08 05:04:34;;;;;;;;;;;;;;;23.74;41.96;101886.44;5054289;28;19912;-71
2023/06/08 05:07:00;;;;;;;;;;;;;;;23.73;42.01;101880.19;5065255;28;19936;-71
2023/06/08 05:09:25;;;;;;;;;;;;;;;23.74;42.04;101878.31;5069140;28;20722;-70
2023/06/08 05:11:50;;;;;;;;;;;;;;;23.73;41.99;101876.63;5046414;28;19924;-70
2023/06/08 05:14:15;;;;;;;;;;;;;;;23.72;42.14;101877.66;5071877;28;19928;-71
2023/06/08 05:16:40;;;;;;;;;;;;;;;23.72;42.07;101875.78;5060612;28;19956;-71
2023/06/08 05:19:08;;;;;;;;;;;;;;;23.72;42.05;101872.22;5069202;28;19932;-70
2023/06/08 05:21:33;;;;;;;;;;;;;;;23.71;42.01;101876.81;5069461;28;19964;-71
2023/06/08 05:23:58;;;;;;;;;;;;;;;23.70;42.11;101883.25;5052261;28;20365;-70
2023/06/08 05:26:23;;;;;;;;;;;;;;;23.69;42.01;101887.81;5076523;28;19912;-70
2023/06/08 05:28:48;;;;;;;;;;;;;;;23.68;42.17;101882.59;5061061;28;19916;-70
2023/06/08 05:31:14;;;;;;;;;;;;;;;23.69;42.10;101885.09;5067216;28;19917;-70
2023/06/08 05:33:39;;;;;;;;;;;;;;;23.67;42.12;101879.03;5067749;28;19917;-70
2023/06/08 05:36:05;;;;;;;;;;;;;;;23.67;41.91;101878.19;5067954;28;19917;-70
2023/06/08 05:38:31;;;;;;;;;;;;;;;23.66;41.91;101880.06;5065423;28;19913;-70
2023/06/08 05:40:56;;;;;;;;;;;;;;;23.66;42.10;101869.19;5052162;28;19923;-70
2023/06/08 05:43:21;;;;;;;;;;;;;;;23.65;42.04;101867.47;5064628;28;19913;-70
2023/06/08 05:45:46;;;;;;;;;;;;;;;23.65;42.21;101864.75;5064117;28;19919;-70
2023/06/08 05:48:12;;;;;;;;;;;;;;;23.65;42.17;101858.50;5072070;28;19980;-71
2023/06/08 05:50:38;;;;;;;;;;;;;;;23.64;41.98;101863.03;5055137;28;19921;-70
2023/06/08 05:53:03;;;;;;;;;;;;;;;23.64;42.25;101860.34;5073731;28;19923;-70
2023/06/08 05:55:28;;;;;;;;;;;;;;;23.64;41.76;101868.47;5063810;28;19948;-70
2023/06/08 05:57:53;;;;;;;;;;;;;;;23.63;42.08;101863.25;5060971;28;19935;-70
2023/06/08 06:00:19;;;;;;;;;;;;;;;23.62;42.10;101859.69;5071869;28;19920;-70
2023/06/08 06:02:44;;;;;;;;;;;;;;;23.62;42.15;101867.81;5064762;28;19916;-69
2023/06/08 06:05:09;;;;;;;;;;;;;;;23.62;42.11;101866.97;5062897;28;20400;-70
2023/06/08 06:07:35;;;;;;;;;;;;;;;23.62;42.15;101864.25;5065876;28;19917;-70
2023/06/08 06:10:00;;;;;;;;;;;;;;;23.62;41.97;101861.56;5066633;28;19920;-70
2023/06/08 06:12:25;;;;;;;;;;;;;;;23.62;42.23;101864.25;5060220;28;19919;-70
2023/06/08 06:14:52;;;;;;;;;;;;;;;23.62;41.93;101864.25;5072460;28;19921;-70
2023/06/08 06:17:17;;;;;;;;;;;;;;;23.60;42.23;101867.13;5058160;28;19913;-70
2023/06/08 06:19:42;;;;;;;;;;;;;;;23.60;42.28;101855.44;5065691;28;19923;-70
2023/06/08 06:22:11;;;;;;;;;;;;;;;23.59;41.95;101861.91;5067134;28;20415;-70
2023/06/08 06:24:36;;;;;;;;;;;;;;;23.58;42.06;101858.34;5041772;28;19918;-70
2023/06/08 06:27:02;;;;;;;;;;;;;;;23.59;42.17;101862.75;5053365;28;19917;-70
2023/06/08 06:29:27;;;;;;;;;;;;;;;23.58;42.00;101861.06;5061160;28;19924;-70
2023/06/08 06:31:52;;;;;;;;;;;;;;;23.58;42.01;101861.06;5064135;28;19919;-70
2023/06/08 06:34:18;;;;;;;;;;;;;;;23.57;42.05;101864.75;5066097;28;19924;-70
2023/06/08 06:36:44;;;;;;;;;;;;;;;23.58;42.01;101868.34;5049253;28;19920;-70
2023/06/08 06:39:09;;;;;;;;;;;;;;;23.57;41.94;101870.19;5059329;28;19952;-70
2023/06/08 06:41:34;;;;;;;;;;;;;;;23.56;41.93;101857.66;5071019;28;20353;-70
2023/06/08 06:43:59;;;;;;;;;;;;;;;23.56;42.00;101852.22;5062719;28;20366;-69
2023/06/08 06:46:25;;;;;;;;;;;;;;;23.56;42.00;101857.66;5063798;28;19917;-69
2023/06/08 06:48:50;;;;;;;;;;;;;;;23.56;41.96;101867.66;5070752;28;19931;-70
2023/06/08 06:51:15;;;;;;;;;;;;;;;23.54;42.04;101867.84;5059563;28;19940;-70
2023/06/08 06:53:41;;;;;;;;;;;;;;;23.54;41.90;101865.16;5070717;28;19913;-70
2023/06/08 06:56:06;;;;;;;;;;;;;;;23.52;42.15;101867.16;5062084;28;19940;-70
2023/06/08 06:58:32;;;;;;;;;;;;;;;23.53;41.92;101868.84;5050460;28;19912;-70
2023/06/08 07:00:57;;;;;;;;;;;;;;;23.53;42.15;101868.00;5069480;28;20404;-70
2023/06/08 07:03:26;;;;;;;;;;;;;;;23.52;42.21;101869.88;5047483;28;19984;-70
2023/06/08 07:05:52;;;;;;;;;;;;;;;23.52;42.44;101872.59;5042205;28;19920;-71
2023/06/08 07:08:17;;;;;;;;;;;;;;;23.51;42.28;101861.94;5049905;28;19912;-71
2023/06/08 07:10:42;;;;;;;;;;;;;;;23.50;42.33;101866.50;5066030;28;19917;-70
2023/06/08 07:13:07;;;;;;;;;;;;;;;23.50;42.25;101863.81;5049458;28;19916;-70
2023/06/08 07:15:33;;;;;;;;;;;;;;;23.50;42.15;101866.50;5072801;28;19920;-70
2023/06/08 07:17:58;;;;;;;;;;;;;;;23.49;42.25;101872.97;5047258;28;19921;-70
2023/06/08 07:20:24;;;;;;;;;;;;;;;23.49;42.42;101866.66;5068441;28;19955;-70
2023/06/08 07:22:49;;;;;;;;;;;;;;;23.47;42.04;101866.84;5064892;28;19967;-70
2023/06/08 07:25:15;;;;;;;;;;;;;;;23.49;42.24;101870.25;5030696;28;19913;-70
2023/06/08 07:27:40;;;;;;;;;;;;;;;23.48;42.36;101870.41;5067306;28;19909;-70
2023/06/08 07:30:06;;;;;;;;;;;;;;;23.48;42.01;101871.25;5062251;28;19921;-70
2023/06/08 07:32:32;;;;;;;;;;;;;;;23.48;42.27;101879.41;5061189;28;20420;-70
2023/06/08 07:34:57;;;;;;;;;;;;;;;23.47;42.35;101877.72;5061689;28;19917;-71
2023/06/08 07:37:23;;;;;;;;;;;;;;;23.47;42.12;101874.16;5051017;28;20456;-70
2023/06/08 07:39:48;;;;;;;;;;;;;;;23.47;42.35;101877.72;5056648;28;19922;-70
2023/06/08 07:42:13;;;;;;;;;;;;;;;23.47;42.60;101869.56;5071748;28;19917;-70
2023/06/08 07:44:38;;;;;;;;;;;;;;;23.47;42.44;101872.28;5060246;28;19913;-70
2023/06/08 07:47:03;;;;;;;;;;;;;;;23.47;42.42;101872.28;5041942;28;19919;-71
2023/06/08 07:49:29;;;;;;;;;;;;;;;23.47;42.53;101872.28;5068776;28;19917;-71
2023/06/08 07:51:54;;;;;;;;;;;;;;;23.48;42.42;101879.41;5056760;28;19913;-71
2023/06/08 07:54:19;;;;;;;;;;;;;;;23.48;42.36;101873.13;5068927;28;19917;-70
2023/06/08 07:56:45;;;;;;;;;;;;;;;23.49;42.49;101881.13;5060947;28;19935;-70
2023/06/08 07:59:11;;;;;;;;;;;;;;;23.49;42.34;101880.25;5051255;28;19935;-70
2023/06/08 08:01:36;;;;;;;;;;;;;;;23.49;42.18;101872.97;5063290;28;19948;-70
2023/06/08 08:04:01;;;;;;;;;;;;;;;23.49;42.20;101875.69;5066970;28;19923;-69
2023/06/08 08:06:26;;;;;;;;;;;;;;;23.48;42.57;101865.81;5056767;28;19965;-70
2023/06/08 08:08:51;;;;;;;;;;;;;;;23.49;42.25;101866.66;5049530;28;19908;-69
2023/06/08 08:11:17;;;;;;;;;;;;;;;23.49;42.55;101870.25;5064664;28;19912;-70
2023/06/08 08:13:42;;;;;;;;;;;;;;;23.48;42.28;101868.53;5056043;28;20292;-70
2023/06/08 08:16:07;;;;;;;;;;;;;;;23.48;42.35;101873.97;5058673;28;19980;-70
2023/06/08 08:18:32;;;;;;;;;;;;;;;23.48;42.29;101873.97;5056147;28;19972;-70
2023/06/08 08:20:57;;;;;;;;;;;;;;;23.47;42.22;101868.72;5065945;28;20585;-70
2023/06/08 08:23:23;;;;;;;;;;;;;;;23.47;42.67;101871.44;5064253;28;20404;-70
2023/06/08 08:25:48;;;;;;;;;;;;;;;23.47;42.42;101875.00;5043565;28;19948;-70
2023/06/08 08:28:13;;;;;;;;;;;;;;;23.47;42.48;101880.44;5061293;28;19923;-71
2023/06/08 08:30:38;;;;;;;;;;;;;;;23.47;42.48;101880.44;5065627;28;19912;-70
2023/06/08 08:33:03;;;;;;;;;;;;;;;23.47;42.40;101874.16;5064496;28;19917;-70
2023/06/08 08:35:31;;;;;;;;;;;;;;;23.47;42.60;101871.44;5065508;28;19917;-70
2023/06/08 08:37:56;;;;;;;;;;;;;;;23.46;42.30;101873.31;5072508;28;19921;-70
2023/06/08 08:40:22;;;;;;;;;;;;;;;23.47;42.67;101871.44;5038671;28;19913;-70
2023/06/08 08:42:48;;;;;;;;;;;;;;;23.47;42.35;101869.56;5074719;28;19927;-70
2023/06/08 08:45:15;;;;;;;;;;;;;;;23.45;42.44;101861.63;5064143;28;19913;-70
2023/06/08 08:47:40;;;;;;;;;;;;;;;23.47;42.54;101863.31;5070470;28;19919;-70
2023/06/08 08:50:06;;;;;;;;;;;;;;;23.47;42.53;101866.00;5055313;28;19963;-71
2023/06/08 08:52:37;;;;;;;;;;;;;;;23.47;42.41;101860.59;5048102;28;20704;-70
2023/06/08 08:55:02;;;;;;;;;;;;;;;23.46;42.54;101862.47;5055229;28;19921;-70
2023/06/08 08:57:28;;;;;;;;;;;;;;;23.47;42.71;101855.16;5066322;28;19917;-71
2023/06/08 08:59:53;;;;;;;;;;;;;;;23.47;42.38;101864.16;5067106;28;20427;-71
2023/06/08 09:02:18;;;;;;;;;;;;;;;23.47;42.41;101857.88;5045548;28;19917;-70
2023/06/08 09:04:44;;;;;;;;;;;;;;;23.47;42.47;101863.31;5072475;28;19917;-70
2023/06/08 09:07:09;;;;;;;;;;;;;;;23.46;42.65;101857.03;5058653;28;20258;-71
2023/06/08 09:09:34;;;;;;;;;;;;;;;23.47;42.70;101864.16;5074881;28;19923;-71
2023/06/08 09:12:00;;;;;;;;;;;;;;;23.47;42.47;101866.00;5067136;28;19920;-70
2023/06/08 09:14:26;;;;;;;;;;;;;;;23.47;42.47;101866.84;5041428;28;19991;-70
2023/06/08 09:16:51;;;;;;;;;;;;;;;23.47;42.71;101866.84;5074115;28;19914;-70
2023/06/08 09:19:17;;;;;;;;;;;;;;;23.48;42.57;101870.41;5045671;28;19918;-70
2023/06/08 09:21:43;;;;;;;;;;;;;;;23.48;42.30;101867.69;5064932;28;19943;-70
2023/06/08 09:24:16;;;;;;;;;;;;;;;23.49;42.52;101859.41;5066026;28;19913;-70
2023/06/08 09:26:49;;;;;;;;;;;;;;;23.49;42.72;101853.09;5049861;28;20008;-70
2023/06/08 09:29:34;;;;;;;;;;;;;;;23.50;42.54;101852.09;5050358;28;19919;-69
2023/06/08 09:32:01;;;;;;;;;;;;;;;23.51;42.62;101853.78;5067941;28;19917;-70
2023/06/08 09:34:29;;;;;;;;;;;;;;;23.50;42.77;101850.22;5056125;28;19921;-70
2023/06/08 09:37:03;;;;;;;;;;;;;;;23.50;42.65;101846.66;5070146;28;19913;-70
2023/06/08 09:39:37;;;;;;;;;;;;;;;23.50;42.78;101842.09;5061298;28;19921;-70
2023/06/08 09:42:02;;;;;;;;;;;;;;;23.51;42.48;101837.50;5045703;28;19923;-69
2023/06/08 09:44:29;;;;;;;;;;;;;;;23.51;42.65;101845.66;5071172;28;19980;-70
2023/06/08 09:46:54;;;;;;;;;;;;;;;23.50;42.57;101844.81;5058643;28;19917;-70
2023/06/08 09:49:19;;;;;;;;;;;;;;;23.50;42.76;101842.09;5049960;28;19970;-70
2023/06/08 09:51:46;;;;;;;;;;;;;;;23.51;42.53;101832.91;5050022;28;19928;-70
2023/06/08 09:54:11;;;;;;;;;;;;;;;23.51;42.53;101835.63;5067666;28;19911;-70
2023/06/08 09:56:37;;;;;;;;;;;;;;;23.51;42.90;101835.63;5064950;28;20011;-70
2023/06/08 09:59:02;;;;;;;;;;;;;;;23.52;42.84;101831.03;5040213;28;20041;-70
2023/06/08 10:01:33;;;;;;;;;;;;;;;23.51;42.69;101830.19;5060525;28;19925;-70
2023/06/08 10:03:59;;;;;;;;;;;;;;;23.52;43.00;101829.16;5054418;28;19926;-70
2023/06/08 10:06:25;;;;;;;;;;;;;;;23.52;42.86;101831.88;5064750;28;20007;-70
2023/06/08 10:08:51;;;;;;;;;;;;;;;23.53;42.95;101827.28;5058099;28;19955;-70
2023/06/08 10:11:16;;;;;;;;;;;;;;;23.52;42.92;101821.03;5073953;28;19913;-70
2023/06/08 10:13:41;;;;;;;;;;;;;;;23.54;42.71;101826.28;5043333;28;19920;-70
2023/06/08 10:16:06;;;;;;;;;;;;;;;23.54;43.03;101815.44;5051039;28;19924;-70
2023/06/08 10:18:32;;;;;;;;;;;;;;;23.54;42.79;101815.44;5047239;28;19917;-69
2023/06/08 10:20:57;;;;;;;;;;;;;;;23.54;43.05;101813.56;5067499;28;19919;-70
2023/06/08 10:23:22;;;;;;;;;;;;;;;23.54;43.10;101813.56;5063011;28;19913;-70
2023/06/08 10:25:50;;;;;;;;;;;;;;;23.57;43.13;101812.34;5065226;28;19992;-69
2023/06/08 10:28:20;;;;;;;;;;;;;;;23.56;42.91;101814.22;5041995;28;19921;-69
2023/06/08 10:30:45;;;;;;;;;;;;;;;23.56;43.05;101797.94;5068620;28;19912;-71
2023/06/08 10:33:20;;;;;;;;;;;;;;;23.58;43.03;101797.78;5051485;28;19913;-70
2023/06/08 10:36:07;;;;;;;;;;;;;;;23.58;43.38;101798.63;5054448;28;19916;-70
2023/06/08 10:38:56;;;;;;;;;;;;;;;23.60;43.27;101793.84;5072669;28;19913;-70
2023/06/08 10:41:40;;;;;;;;;;;;;;;23.61;43.21;101794.69;5052120;28;20404;-70
2023/06/08 10:44:05;;;;;;;;;;;;;;;23.61;43.10;101791.97;5051860;28;19912;-69
2023/06/08 10:46:43;;;;;;;;;;;;;;;23.62;43.13;101790.97;5060538;28;19913;-70
2023/06/08 10:49:08;;;;;;;;;;;;;;;23.63;43.32;101785.34;5064585;28;19920;-70
2023/06/08 10:51:43;;;;;;;;;;;;;;;23.64;43.44;101789.75;5048161;28;19928;-70
2023/06/08 10:54:09;;;;;;;;;;;;;;;23.65;43.36;101786.03;5064182;28;19919;-70
2023/06/08 10:56:44;;;;;;;;;;;;;;;23.66;43.20;101782.31;5039992;28;19920;-70
2023/06/08 10:59:09;;;;;;;;;;;;;;;23.68;43.47;101782.13;5070683;28;19999;-70
2023/06/08 11:01:35;;;;;;;;;;;;;;;23.69;43.18;101772.94;5061282;28;19917;-71
2023/06/08 11:04:00;;;;;;;;;;;;;;;23.71;43.35;101773.63;5050198;28;19912;-71
2023/06/08 11:06:27;;;;;;;;;;;;;;;23.73;43.40;101774.28;5067179;28;19960;-70
2023/06/08 11:08:53;;;;;;;;;;;;;;;23.75;43.39;101766.81;5037717;28;19920;-70
2023/06/08 11:11:18;;;;;;;;;;;;;;;23.76;43.52;101768.50;5053148;28;19917;-70
2023/06/08 11:13:43;;;;;;;;;;;;;;;23.78;43.49;101771.03;5060962;28;19925;-70
2023/06/08 11:16:08;;;;;;;;;;;;;;;23.79;43.44;101768.16;5050000;28;20042;-71
2023/06/08 11:18:34;;;;;;;;;;;;;;;23.81;43.45;101774.22;5063501;28;19921;-71
2023/06/08 11:20:59;;;;;;;;;;;;;;;23.83;43.51;101774.03;5068195;28;20390;-71
2023/06/08 11:23:25;;;;;;;;;;;;;;;23.84;43.34;101773.88;5059196;28;20301;-71
2023/06/08 11:25:51;;;;;;;;;;;;;;;23.86;43.52;101766.38;5053383;28;19948;-71
2023/06/08 11:28:16;;;;;;;;;;;;;;;23.87;43.63;101765.38;5063025;28;19913;-71
2023/06/08 11:30:41;;;;;;;;;;;;;;;23.88;43.46;101758.91;5058439;28;19980;-71
2023/06/08 11:33:08;;;;;;;;;;;;;;;23.90;43.47;101762.28;5065409;28;20012;-71
2023/06/08 11:35:33;;;;;;;;;;;;;;;23.91;43.60;101753.09;5052960;28;19921;-71
2023/06/08 11:37:59;;;;;;;;;;;;;;;23.95;43.60;101759.00;5071366;28;19916;-71
2023/06/08 11:40:25;;;;;;;;;;;;;;;23.96;43.56;101752.56;5047251;28;19991;-71
2023/06/08 11:42:51;;;;;;;;;;;;;;;23.98;43.53;101755.09;5046541;28;20003;-71
2023/06/08 11:45:16;;;;;;;;;;;;;;;23.99;43.59;101746.75;5066620;28;19917;-70
2023/06/08 11:47:42;;;;;;;;;;;;;;;24.01;43.64;101747.44;5046951;28;19921;-70
2023/06/08 11:50:08;;;;;;;;;;;;;;;24.03;43.51;101742.66;5060596;28;19963;-71
2023/06/08 11:52:34;;;;;;;;;;;;;;;24.05;43.54;101734.34;5065127;28;19916;-71
2023/06/08 11:55:04;;;;;;;;;;;;;;;24.06;43.51;101745.00;5066994;28;19929;-71
2023/06/08 11:57:36;;;;;;;;;;;;;;;24.08;43.44;101740.22;5053898;28;19917;-71
2023/06/08 12:00:06;;;;;;;;;;;;;;;24.10;43.50;101740.91;5073902;28;19919;-71
2023/06/08 12:02:34;;;;;;;;;;;;;;;24.12;43.44;101735.28;5057317;28;19974;-71
2023/06/08 12:04:59;;;;;;;;;;;;;;;24.13;43.57;101732.38;5066544;28;19917;-71
2023/06/08 12:07:24;;;;;;;;;;;;;;;24.15;43.55;101727.59;5062447;28;19924;-71
2023/06/08 12:09:50;;;;;;;;;;;;;;;24.16;43.50;101725.72;5060365;28;19919;-71
2023/06/08 12:12:15;;;;;;;;;;;;;;;24.18;43.67;101712.81;5068664;28;19923;-71
2023/06/08 12:14:47;;;;;;;;;;;;;;;24.20;43.64;101708.88;5063384;28;19925;-71
2023/06/08 12:17:17;;;;;;;;;;;;;;;24.23;43.44;101712.25;5061029;28;20413;-71
2023/06/08 12:19:45;;;;;;;;;;;;;;;24.24;43.42;101705.78;5049406;28;19920;-71
2023/06/08 12:22:10;;;;;;;;;;;;;;;24.26;43.72;101706.47;5049388;28;19914;-71
2023/06/08 12:24:37;;;;;;;;;;;;;;;24.27;43.71;101700.84;5036392;28;19913;-71
2023/06/08 12:27:03;;;;;;;;;;;;;;;24.30;43.63;101703.19;5074337;28;19921;-71
2023/06/08 12:29:28;;;;;;;;;;;;;;;24.31;43.77;101690.44;5057925;28;20156;-71
2023/06/08 12:31:53;;;;;;;;;;;;;;;24.32;43.73;101679.38;5064743;28;19916;-71